createdAt,value
2019-03-12T00:00:36.541Z,101572.29
2019-03-12T00:01:40.520Z,101571.21
2019-03-12T00:02:43.993Z,101565.72
2019-03-12T00:03:47.569Z,101571.21
2019-03-12T00:04:51.087Z,101568.47
2019-03-12T00:05:54.556Z,101565.98
2019-03-12T00:06:58.325Z,101564.61
2019-03-12T00:08:01.835Z,101560.23
2019-03-12T00:09:06.720Z,101560.23
2019-03-12T00:10:10.444Z,101561.05
2019-03-12T00:11:13.935Z,101561.05
2019-03-12T00:12:17.693Z,101558.04
2019-03-12T00:13:21.242Z,101560.78
2019-03-12T00:14:24.837Z,101559.97
2019-03-12T00:15:28.465Z,101555.33
2019-03-12T00:16:32.150Z,101563.53
2019-03-12T00:17:35.642Z,101559.97
2019-03-12T00:18:39.269Z,101562.71
2019-03-12T00:19:42.964Z,101557.48
2019-03-12T00:20:46.583Z,101561.28
2019-03-12T00:21:50.075Z,101565.95
2019-03-12T00:22:53.733Z,101561.57
2019-03-12T00:23:57.423Z,101561.87
2019-03-12T00:25:01.073Z,101558.30
2019-03-12T00:26:05.030Z,101555.81
2019-03-12T00:27:08.663Z,101560.49
2019-03-12T00:28:12.535Z,101562.97
2019-03-12T00:29:16.162Z,101563.27
2019-03-12T00:30:19.810Z,101564.64
2019-03-12T00:31:23.337Z,101567.68
2019-03-12T00:32:26.915Z,101569.05
2019-03-12T00:33:32.532Z,101564.67
2019-03-12T00:34:35.976Z,101563.56
2019-03-12T00:35:39.490Z,101564.67
2019-03-12T00:36:42.982Z,101561.92
2019-03-12T00:37:46.465Z,101561.92
2019-03-12T00:38:49.953Z,101561.92
2019-03-12T00:39:53.441Z,101555.59
2019-03-12T00:40:56.956Z,101559.18
2019-03-12T00:42:00.433Z,101559.44
2019-03-12T00:43:03.922Z,101561.63
2019-03-12T00:44:07.474Z,101560.00
2019-03-12T00:45:12.071Z,101554.77
2019-03-12T00:46:15.579Z,101553.39
2019-03-12T00:47:19.071Z,101547.91
2019-03-12T00:48:22.565Z,101555.87
2019-03-12T00:49:26.057Z,101560.26
2019-03-12T00:50:29.545Z,101557.52
2019-03-12T00:51:33.060Z,101561.38
2019-03-12T00:52:36.621Z,101559.44
2019-03-12T00:53:40.174Z,101556.98
2019-03-12T00:54:43.657Z,101559.73
2019-03-12T00:55:47.152Z,101558.36
2019-03-12T00:56:50.659Z,101553.16
2019-03-12T00:57:54.228Z,101552.61
2019-03-12T00:58:57.723Z,101555.36
2019-03-12T01:00:01.280Z,101555.36
2019-03-12T01:01:04.844Z,101555.09
2019-03-12T01:02:08.406Z,101555.36
2019-03-12T01:03:11.913Z,101560.84
2019-03-12T01:04:15.402Z,101554.53
2019-03-12T01:05:18.911Z,101554.53
2019-03-12T01:06:22.385Z,101556.47
2019-03-12T01:07:25.890Z,101555.09
2019-03-12T01:08:29.439Z,101556.47
2019-03-12T01:09:33.097Z,101556.47
2019-03-12T01:10:36.846Z,101558.95
2019-03-12T01:11:40.414Z,101554.83
2019-03-12T01:12:44.109Z,101558.95
2019-03-12T01:13:47.652Z,101550.16
2019-03-12T01:14:51.147Z,101548.26
2019-03-12T01:15:54.710Z,101547.97
2019-03-12T01:16:58.278Z,101541.11
2019-03-12T01:18:01.798Z,101541.11
2019-03-12T01:19:05.416Z,101542.48
2019-03-12T01:20:11.506Z,101547.41
2019-03-12T01:21:14.999Z,101540.29
2019-03-12T01:22:18.568Z,101535.36
2019-03-12T01:23:22.077Z,101536.98
2019-03-12T01:24:25.576Z,101540.84
2019-03-12T01:25:29.049Z,101540.58
2019-03-12T01:26:32.543Z,101539.20
2019-03-12T01:27:36.092Z,101537.28
2019-03-12T01:28:39.617Z,101532.91
2019-03-12T01:29:43.109Z,101537.28
2019-03-12T01:30:46.659Z,101532.34
2019-03-12T01:31:50.221Z,101533.16
2019-03-12T01:32:53.721Z,101530.97
2019-03-12T01:33:57.228Z,101528.23
2019-03-12T01:35:00.794Z,101525.48
2019-03-12T01:36:04.344Z,101517.25
2019-03-12T01:37:07.898Z,101522.73
2019-03-12T01:38:11.387Z,101531.79
2019-03-12T01:39:15.284Z,101531.23
2019-03-12T01:40:18.780Z,101529.86
2019-03-12T01:41:22.263Z,101527.12
2019-03-12T01:42:25.751Z,101531.23
2019-03-12T01:43:29.276Z,101531.79
2019-03-12T01:44:32.821Z,101529.86
2019-03-12T01:45:36.388Z,101531.23
2019-03-12T01:46:39.952Z,101530.42
2019-03-12T01:47:43.575Z,101526.86
2019-03-12T01:48:47.156Z,101526.86
2019-03-12T01:49:50.688Z,101517.55
2019-03-12T01:50:54.240Z,101515.91
2019-03-12T01:51:57.738Z,101517.28
2019-03-12T01:53:01.220Z,101518.66
2019-03-12T01:54:04.852Z,101520.84
2019-03-12T01:55:11.009Z,101518.39
2019-03-12T01:56:14.501Z,101509.89
2019-03-12T01:57:18.003Z,101511.83
2019-03-12T01:58:21.485Z,101503.85
2019-03-12T01:59:25.056Z,101504.70
2019-03-12T02:00:28.573Z,101499.77
2019-03-12T02:01:32.126Z,101504.70
2019-03-12T02:02:35.685Z,101494.83
2019-03-12T02:03:39.173Z,101495.36
2019-03-12T02:04:42.657Z,101495.91
2019-03-12T02:05:46.193Z,101494.28
2019-03-12T02:06:49.693Z,101492.09
2019-03-12T02:07:53.453Z,101488.53
2019-03-12T02:08:56.957Z,101492.38
2019-03-12T02:10:00.455Z,101488.00
2019-03-12T02:11:03.928Z,101489.38
2019-03-12T02:12:07.583Z,101489.11
2019-03-12T02:13:11.058Z,101491.59
2019-03-12T02:14:28.063Z,101478.98
2019-03-12T02:15:31.852Z,101481.73
2019-03-12T02:16:35.347Z,101476.24
2019-03-12T02:17:39.002Z,101475.16
2019-03-12T02:18:42.544Z,101470.78
2019-03-12T02:19:46.034Z,101471.34
2019-03-12T02:20:49.605Z,101475.45
2019-03-12T02:21:53.385Z,101471.08
2019-03-12T02:22:57.024Z,101468.34
2019-03-12T02:24:00.533Z,101473.82
2019-03-12T02:25:05.230Z,101469.70
2019-03-12T02:26:08.757Z,101469.44
2019-03-12T02:27:12.345Z,101467.52
2019-03-12T02:28:15.965Z,101466.70
2019-03-12T02:29:20.026Z,101468.63
2019-03-12T02:30:23.568Z,101462.59
2019-03-12T02:31:27.136Z,101461.21
2019-03-12T02:32:30.708Z,101458.77
2019-03-12T02:33:34.385Z,101458.20
2019-03-12T02:34:37.996Z,101453.80
2019-03-12T02:35:41.468Z,101451.05
2019-03-12T02:36:45.054Z,101452.42
2019-03-12T02:37:48.556Z,101443.37
2019-03-12T02:38:52.052Z,101443.94
2019-03-12T02:39:55.634Z,101443.94
2019-03-12T02:40:59.129Z,101439.27
2019-03-12T02:42:02.680Z,101442.83
2019-03-12T02:43:06.198Z,101434.59
2019-03-12T02:44:09.736Z,101432.70
2019-03-12T02:45:15.249Z,101438.19
2019-03-12T02:46:18.747Z,101440.63
2019-03-12T02:47:22.239Z,101439.27
2019-03-12T02:48:25.928Z,101437.08
2019-03-12T02:49:29.529Z,101436.27
2019-03-12T02:50:33.084Z,101434.33
2019-03-12T02:51:36.766Z,101448.61
2019-03-12T02:52:40.398Z,101433.25
2019-03-12T02:53:43.893Z,101441.75
2019-03-12T02:54:47.556Z,101436.00
2019-03-12T02:55:51.149Z,101440.11
2019-03-12T02:56:54.896Z,101440.67
2019-03-12T02:57:58.628Z,101444.78
2019-03-12T02:59:02.223Z,101447.78
2019-03-12T03:00:15.287Z,101446.97
2019-03-12T03:01:18.952Z,101445.34
2019-03-12T03:02:22.507Z,101436.84
2019-03-12T03:03:26.186Z,101434.10
2019-03-12T03:04:29.787Z,101436.29
2019-03-12T03:05:34.965Z,101437.66
2019-03-12T03:06:46.365Z,101436.03
2019-03-12T03:07:51.645Z,101439.33
2019-03-12T03:08:55.334Z,101433.02
2019-03-12T03:09:58.846Z,101437.14
2019-03-12T03:11:02.386Z,101440.44
2019-03-12T03:12:05.945Z,101439.62
2019-03-12T03:13:09.507Z,101437.43
2019-03-12T03:14:35.765Z,101442.36
2019-03-12T03:15:44.001Z,101438.25
2019-03-12T03:16:47.563Z,101440.17
2019-03-12T03:17:51.203Z,101434.69
2019-03-12T03:18:54.869Z,101436.06
2019-03-12T03:19:58.502Z,101435.50
2019-03-12T03:21:02.025Z,101438.80
2019-03-12T03:22:05.600Z,101436.06
2019-03-12T03:23:09.219Z,101434.69
2019-03-12T03:24:12.752Z,101438.25
2019-03-12T03:25:16.370Z,101436.06
2019-03-12T03:26:20.026Z,101433.87
2019-03-12T03:27:23.532Z,101437.43
2019-03-12T03:28:27.019Z,101440.17
2019-03-12T03:29:30.518Z,101434.42
2019-03-12T03:30:34.204Z,101435.24
2019-03-12T03:31:37.778Z,101432.50
2019-03-12T03:32:41.262Z,101433.05
2019-03-12T03:33:44.899Z,101431.69
2019-03-12T03:34:48.409Z,101432.23
2019-03-12T03:35:51.972Z,101433.05
2019-03-12T03:36:55.539Z,101434.42
2019-03-12T03:37:59.128Z,101438.83
2019-03-12T03:39:02.722Z,101440.20
2019-03-12T03:40:07.854Z,101436.09
2019-03-12T03:41:11.557Z,101433.91
2019-03-12T03:42:15.142Z,101429.52
2019-03-12T03:43:18.701Z,101430.05
2019-03-12T03:44:22.249Z,101428.41
2019-03-12T03:45:25.814Z,101427.59
2019-03-12T03:46:29.320Z,101425.67
2019-03-12T03:47:32.842Z,101422.66
2019-03-12T03:48:36.347Z,101426.52
2019-03-12T03:49:39.909Z,101427.34
2019-03-12T03:50:43.399Z,101420.22
2019-03-12T03:51:46.901Z,101421.85
2019-03-12T03:52:50.414Z,101422.70
2019-03-12T03:53:54.038Z,101418.03
2019-03-12T03:54:57.528Z,101415.84
2019-03-12T03:56:01.258Z,101419.14
2019-03-12T03:57:04.934Z,101417.21
2019-03-12T03:58:08.741Z,101420.51
2019-03-12T03:59:12.387Z,101413.69
2019-03-12T04:00:23.821Z,101410.65
2019-03-12T04:01:28.867Z,101401.61
2019-03-12T04:02:32.442Z,101404.61
2019-03-12T04:03:36.073Z,101400.20
2019-03-12T04:04:39.741Z,101393.05
2019-03-12T04:05:43.445Z,101400.98
2019-03-12T04:06:46.940Z,101397.66
2019-03-12T04:07:50.430Z,101391.81
2019-03-12T04:08:54.012Z,101384.39
2019-03-12T04:09:57.666Z,101382.06
2019-03-12T04:11:01.213Z,101381.99
2019-03-12T04:12:04.953Z,101378.62
2019-03-12T04:13:08.545Z,101382.62
2019-03-12T04:14:12.116Z,101379.46
2019-03-12T04:15:17.733Z,101377.14
2019-03-12T04:16:21.301Z,101369.59
2019-03-12T04:17:24.804Z,101371.36
2019-03-12T04:18:28.416Z,101369.80
2019-03-12T04:19:31.997Z,101364.75
2019-03-12T04:20:35.627Z,101365.45
2019-03-12T04:21:39.174Z,101359.01
2019-03-12T04:22:42.684Z,101355.28
2019-03-12T04:23:46.230Z,101353.52
2019-03-12T04:24:49.786Z,101359.30
2019-03-12T04:25:53.430Z,101358.88
2019-03-12T04:26:57.001Z,101350.83
2019-03-12T04:28:00.561Z,101359.41
2019-03-12T04:29:04.133Z,101352.13
2019-03-12T04:30:18.358Z,101352.86
2019-03-12T04:31:21.975Z,101355.87
2019-03-12T04:32:25.531Z,101358.29
2019-03-12T04:33:54.395Z,101350.23
2019-03-12T04:34:58.088Z,101351.30
2019-03-12T04:36:01.889Z,101358.10
2019-03-12T04:37:05.680Z,101354.73
2019-03-12T04:38:09.165Z,101358.95
2019-03-12T04:39:12.779Z,101356.41
2019-03-12T04:40:16.436Z,101349.36
2019-03-12T04:41:20.042Z,101349.36
2019-03-12T04:42:23.659Z,101349.80
2019-03-12T04:43:27.261Z,101347.11
2019-03-12T04:44:30.865Z,101347.92
2019-03-12T04:45:34.415Z,101345.17
2019-03-12T04:46:38.085Z,101333.91
2019-03-12T04:47:41.628Z,101345.84
2019-03-12T04:48:45.213Z,101336.95
2019-03-12T04:49:48.889Z,101336.95
2019-03-12T04:50:52.374Z,101330.58
2019-03-12T04:51:55.912Z,101330.33
2019-03-12T04:52:59.392Z,101333.08
2019-03-12T04:54:03.003Z,101332.83
2019-03-12T04:55:09.556Z,101323.44
2019-03-12T04:56:13.172Z,101319.81
2019-03-12T04:57:16.794Z,101321.44
2019-03-12T04:58:20.311Z,101317.30
2019-03-12T04:59:23.965Z,101314.80
2019-03-12T05:00:27.480Z,101319.97
2019-03-12T05:01:31.071Z,101321.34
2019-03-12T05:02:34.707Z,101322.16
2019-03-12T05:03:38.206Z,101315.59
2019-03-12T05:04:41.995Z,101315.02
2019-03-12T05:05:45.721Z,101318.03
2019-03-12T05:06:49.241Z,101319.09
2019-03-12T05:07:52.823Z,101309.70
2019-03-12T05:08:56.309Z,101309.45
2019-03-12T05:09:59.972Z,101309.14
2019-03-12T05:11:03.468Z,101306.95
2019-03-12T05:12:07.061Z,101301.94
2019-03-12T05:13:10.616Z,101300.88
2019-03-12T05:14:23.024Z,101303.38
2019-03-12T05:15:26.539Z,101293.80
2019-03-12T05:16:30.024Z,101296.31
2019-03-12T05:17:33.668Z,101296.06
2019-03-12T05:18:37.586Z,101298.59
2019-03-12T05:19:41.163Z,101298.34
2019-03-12T05:20:44.750Z,101292.84
2019-03-12T05:21:48.337Z,101292.14
2019-03-12T05:23:54.305Z,101288.02
2019-03-12T05:24:57.891Z,101293.59
2019-03-12T05:26:01.380Z,101287.27
2019-03-12T05:27:05.045Z,101286.39
2019-03-12T05:28:08.618Z,101290.52
2019-03-12T05:29:12.196Z,101281.32
2019-03-12T05:30:19.867Z,101282.01
2019-03-12T05:31:23.426Z,101278.97
2019-03-12T05:32:26.955Z,101284.17
2019-03-12T05:33:30.509Z,101282.54
2019-03-12T05:34:34.116Z,101286.98
2019-03-12T05:35:37.609Z,101274.63
2019-03-12T05:36:41.080Z,101276.00
2019-03-12T05:37:44.751Z,101277.13
2019-03-12T05:38:48.231Z,101275.25
2019-03-12T05:39:51.812Z,101271.44
2019-03-12T05:40:55.393Z,101275.56
2019-03-12T05:41:58.871Z,101282.20
2019-03-12T05:43:02.497Z,101275.69
2019-03-12T05:44:05.979Z,101274.09
2019-03-12T05:45:12.169Z,101275.19
2019-03-12T05:46:15.645Z,101276.00
2019-03-12T05:47:19.212Z,101271.88
2019-03-12T05:48:22.815Z,101276.00
2019-03-12T05:49:26.407Z,101268.80
2019-03-12T05:50:30.043Z,101270.69
2019-03-12T05:51:33.642Z,101269.49
2019-03-12T05:52:38.166Z,101264.73
2019-03-12T05:53:47.770Z,101263.30
2019-03-12T05:54:51.295Z,101258.91
2019-03-12T05:55:54.823Z,101261.10
2019-03-12T05:57:13.552Z,101261.35
2019-03-12T05:58:17.065Z,101259.16
2019-03-12T05:59:20.676Z,101258.98
2019-03-12T06:00:30.409Z,101253.97
2019-03-12T06:01:36.864Z,101254.59
2019-03-12T06:02:40.474Z,101255.41
2019-03-12T06:03:44.134Z,101253.84
2019-03-12T06:04:47.772Z,101249.22
2019-03-12T06:05:51.430Z,101250.03
2019-03-12T06:06:55.026Z,101240.39
2019-03-12T06:07:58.618Z,101252.78
2019-03-12T06:09:02.315Z,101248.41
2019-03-12T06:10:08.995Z,101241.20
2019-03-12T06:11:12.858Z,101238.20
2019-03-12T06:12:16.464Z,101244.96
2019-03-12T06:13:19.993Z,101239.39
2019-03-12T06:14:23.512Z,101233.00
2019-03-12T06:15:27.036Z,101226.94
2019-03-12T06:16:30.885Z,101232.16
2019-03-12T06:17:34.389Z,101233.00
2019-03-12T06:18:38.016Z,101225.55
2019-03-12T06:19:41.651Z,101223.68
2019-03-12T06:20:45.221Z,101222.05
2019-03-12T06:21:48.750Z,101224.31
2019-03-12T06:22:52.372Z,101225.94
2019-03-12T06:23:55.915Z,101222.44
2019-03-12T06:24:59.387Z,101220.80
2019-03-12T06:26:02.896Z,101215.61
2019-03-12T06:27:06.471Z,101220.31
2019-03-12T06:28:09.971Z,101215.43
2019-03-12T06:29:13.496Z,101219.56
2019-03-12T06:30:19.072Z,101212.11
2019-03-12T06:31:32.997Z,101211.58
2019-03-12T06:32:38.263Z,101207.42
2019-03-12T06:33:43.380Z,101206.29
2019-03-12T06:34:48.575Z,101204.60
2019-03-12T06:36:08.837Z,101206.29
2019-03-12T06:37:14.006Z,101205.48
2019-03-12T06:38:35.219Z,101204.66
2019-03-12T06:39:42.975Z,101199.16
2019-03-12T06:40:50.459Z,101200.53
2019-03-12T06:42:01.525Z,101201.20
2019-03-12T06:43:12.229Z,101205.89
2019-03-12T06:44:17.371Z,101201.58
2019-03-12T06:45:22.602Z,101194.76
2019-03-12T06:46:33.862Z,101195.64
2019-03-12T06:47:38.985Z,101194.02
2019-03-12T06:48:44.153Z,101193.45
2019-03-12T06:49:57.910Z,101189.81
2019-03-12T06:51:03.227Z,101190.69
2019-03-12T06:52:24.618Z,101186.25
2019-03-12T06:53:47.428Z,101186.44
2019-03-12T06:55:08.488Z,101183.37
2019-03-12T06:56:16.052Z,101182.87
2019-03-12T06:57:21.222Z,101175.73
2019-03-12T06:58:31.936Z,101169.98
2019-03-12T06:59:51.729Z,101173.36
2019-03-12T07:00:56.929Z,101171.45
2019-03-12T07:02:10.732Z,101173.71
2019-03-12T07:03:27.833Z,101155.08
2019-03-12T07:04:38.474Z,101156.20
2019-03-12T07:05:49.764Z,101154.08
2019-03-12T07:07:16.958Z,101157.64
2019-03-12T07:08:26.727Z,101154.33
2019-03-12T07:09:44.029Z,101147.02
2019-03-12T07:10:57.950Z,101148.17
2019-03-12T07:12:08.853Z,101141.67
2019-03-12T07:13:14.211Z,101138.66
2019-03-12T07:14:22.778Z,101133.48
2019-03-12T07:15:31.131Z,101136.16
2019-03-12T07:16:48.561Z,101132.78
2019-03-12T07:17:56.745Z,101133.25
2019-03-12T07:19:07.663Z,101129.23
2019-03-12T07:20:28.130Z,101128.80
2019-03-12T07:21:39.388Z,101121.56
2019-03-12T07:22:44.600Z,101123.80
2019-03-12T07:23:55.396Z,101119.91
2019-03-12T07:25:03.553Z,101122.06
2019-03-12T07:26:17.578Z,101118.19
2019-03-12T07:27:34.282Z,101117.30
2019-03-12T07:28:50.155Z,101112.05
2019-03-12T07:30:00.977Z,101109.40
2019-03-12T07:31:09.264Z,101101.10
2019-03-12T07:32:17.197Z,101106.47
2019-03-12T07:33:38.277Z,101102.52
2019-03-12T07:34:43.546Z,101102.44
2019-03-12T07:36:04.562Z,101098.88
2019-03-12T07:37:15.395Z,101092.62
2019-03-12T07:38:20.602Z,101097.22
2019-03-12T07:39:25.741Z,101100.39
2019-03-12T07:40:33.625Z,101091.71
2019-03-12T07:41:38.829Z,101099.55
2019-03-12T07:42:53.095Z,101095.77
2019-03-12T07:44:16.172Z,101087.76
2019-03-12T07:45:27.140Z,101086.55
2019-03-12T07:46:32.299Z,101079.67
2019-03-12T07:47:41.978Z,101083.77
2019-03-12T07:48:49.747Z,101078.95
2019-03-12T07:50:09.774Z,101081.45
2019-03-12T07:51:26.678Z,101078.25
2019-03-12T07:52:47.872Z,101076.92
2019-03-12T07:53:59.640Z,101075.54
2019-03-12T07:55:18.533Z,101074.80
2019-03-12T07:56:40.026Z,101075.38
2019-03-12T07:57:45.139Z,101076.75
2019-03-12T07:58:52.692Z,101074.39
2019-03-12T08:00:10.095Z,101070.33
2019-03-12T08:01:15.405Z,101074.78
2019-03-12T08:02:26.356Z,101072.07
2019-03-12T08:03:43.064Z,101072.39
2019-03-12T08:04:54.064Z,101070.84
2019-03-12T08:06:04.686Z,101067.84
2019-03-12T08:07:15.501Z,101059.33
2019-03-12T08:08:20.638Z,101057.22
2019-03-12T08:09:34.551Z,101056.33
2019-03-12T08:10:45.503Z,101056.33
2019-03-12T08:12:08.330Z,101055.05
2019-03-12T08:13:13.575Z,101050.73
2019-03-12T08:14:27.393Z,101047.18
2019-03-12T08:15:35.885Z,101036.23
2019-03-12T08:16:47.186Z,101039.84
2019-03-12T08:17:55.458Z,101044.97
2019-03-12T08:19:00.653Z,101041.76
2019-03-12T08:20:10.419Z,101036.73
2019-03-12T08:21:26.232Z,101031.87
2019-03-12T08:22:40.152Z,101031.73
2019-03-12T08:23:45.294Z,101026.22
2019-03-12T08:24:50.451Z,101018.95
2019-03-12T08:26:11.988Z,101015.86
2019-03-12T08:27:25.961Z,101012.30
2019-03-12T08:28:29.820Z,100996.61
2019-03-12T08:29:38.009Z,100998.83
2019-03-12T08:30:45.934Z,101001.88
2019-03-12T08:31:53.770Z,100999.21
2019-03-12T08:33:04.795Z,100999.21
2019-03-12T08:34:18.394Z,100995.08
2019-03-12T08:35:23.546Z,100988.59
2019-03-12T08:36:44.559Z,100985.34
2019-03-12T08:37:52.269Z,100985.34
2019-03-12T08:38:57.392Z,100982.92
2019-03-12T08:40:16.981Z,100987.30
2019-03-12T08:41:37.098Z,100979.16
2019-03-12T08:42:55.083Z,100985.57
2019-03-12T08:44:12.076Z,100981.19
2019-03-12T08:45:29.100Z,100981.59
2019-03-12T08:46:36.754Z,100977.79
2019-03-12T08:47:56.818Z,100973.55
2019-03-12T08:49:01.953Z,100964.62
2019-03-12T08:50:09.434Z,100966.66
2019-03-12T08:51:30.902Z,100963.25
2019-03-12T08:52:36.072Z,100959.73
2019-03-12T08:53:49.639Z,100957.03
2019-03-12T08:55:10.691Z,100957.03
2019-03-12T08:56:18.588Z,100953.27
2019-03-12T08:57:23.750Z,100953.67
2019-03-12T08:58:28.866Z,100950.75
2019-03-12T08:59:45.580Z,100944.80
2019-03-12T09:01:07.150Z,100943.18
2019-03-12T09:02:30.396Z,100937.43
2019-03-12T09:03:51.177Z,100943.18
2019-03-12T09:05:01.746Z,100934.92
2019-03-12T09:06:06.938Z,100936.86
2019-03-12T09:07:14.935Z,100925.60
2019-03-12T09:08:35.977Z,100927.63
2019-03-12T09:09:53.611Z,100920.73
2019-03-12T09:11:04.535Z,100921.38
2019-03-12T09:12:09.671Z,100921.38
2019-03-12T09:13:14.803Z,100915.31
2019-03-12T09:14:28.843Z,100908.50
2019-03-12T09:15:50.323Z,100907.38
2019-03-12T09:16:58.384Z,100907.25
2019-03-12T09:18:03.677Z,100901.26
2019-03-12T09:19:24.127Z,100905.14
2019-03-12T09:20:34.992Z,100896.64
2019-03-12T09:21:56.384Z,100891.62
2019-03-12T09:23:01.796Z,100885.06
2019-03-12T09:24:07.087Z,100880.61
2019-03-12T09:25:12.366Z,100881.91
2019-03-12T09:26:17.551Z,100880.53
2019-03-12T09:27:22.693Z,100877.48
2019-03-12T09:28:36.745Z,100864.28
2019-03-12T09:29:44.904Z,100871.16
2019-03-12T09:31:05.193Z,100865.33
2019-03-12T09:32:19.214Z,100866.71
2019-03-12T09:33:24.345Z,100859.47
2019-03-12T09:34:45.337Z,100859.47
2019-03-12T09:36:06.529Z,100853.15
2019-03-12T09:37:14.320Z,100847.80
2019-03-12T09:38:28.009Z,100843.52
2019-03-12T09:39:33.342Z,100840.24
2019-03-12T09:40:38.459Z,100835.05
2019-03-12T09:41:55.849Z,100838.38
2019-03-12T09:43:16.700Z,100841.38
2019-03-12T09:44:30.704Z,100834.98
2019-03-12T09:45:35.966Z,100830.84
2019-03-12T09:46:41.176Z,100823.11
2019-03-12T09:47:46.382Z,100828.66
2019-03-12T09:48:57.445Z,100826.23
2019-03-12T09:50:08.131Z,100818.87
2019-03-12T09:51:13.336Z,100815.88
2019-03-12T09:52:27.356Z,100815.95
2019-03-12T09:53:44.274Z,100816.27
2019-03-12T09:54:49.501Z,100807.85
2019-03-12T09:56:10.544Z,100805.39
2019-03-12T09:57:18.292Z,100807.09
2019-03-12T09:58:38.346Z,100797.78
2019-03-12T09:59:55.229Z,100797.53
2019-03-12T10:01:00.620Z,100800.29
2019-03-12T10:02:05.806Z,100798.91
2019-03-12T10:03:28.428Z,100799.48
2019-03-12T10:04:45.428Z,100801.74
2019-03-12T10:05:59.233Z,100788.55
2019-03-12T10:07:04.517Z,100790.00
2019-03-12T10:08:18.819Z,100778.19
2019-03-12T10:09:39.216Z,100788.95
2019-03-12T10:11:02.317Z,100782.96
2019-03-12T10:12:07.580Z,100787.95
2019-03-12T10:13:12.719Z,100778.64
2019-03-12T10:14:33.914Z,100778.96
2019-03-12T10:15:39.048Z,100772.97
2019-03-12T10:16:56.361Z,100773.86
2019-03-12T10:18:13.614Z,100772.80
2019-03-12T10:19:21.316Z,100766.49
2019-03-12T10:20:38.576Z,100767.87
2019-03-12T10:21:55.399Z,100762.61
2019-03-12T10:23:09.269Z,100755.48
2019-03-12T10:24:14.378Z,100757.11
2019-03-12T10:25:19.509Z,100746.72
2019-03-12T10:26:24.711Z,100741.22
2019-03-12T10:27:44.831Z,100734.09
2019-03-12T10:28:59.053Z,100738.55
2019-03-12T10:30:06.846Z,100733.33
2019-03-12T10:31:14.906Z,100736.08
2019-03-12T10:32:22.698Z,100728.47
2019-03-12T10:33:30.773Z,100729.05
2019-03-12T10:34:47.692Z,100727.42
2019-03-12T10:35:59.021Z,100725.00
2019-03-12T10:37:12.169Z,100723.62
2019-03-12T10:38:58.855Z,100723.05
2019-03-12T10:40:05.925Z,100719.49
2019-03-12T10:41:13.603Z,100712.30
2019-03-12T10:42:18.751Z,100711.48
2019-03-12T10:43:23.885Z,100703.23
2019-03-12T10:44:44.288Z,100707.12
2019-03-12T10:46:01.310Z,100706.55
2019-03-12T10:47:15.237Z,100700.16
2019-03-12T10:48:18.760Z,100694.34
2019-03-12T10:49:22.227Z,100685.52
2019-03-12T10:50:26.013Z,100679.20
2019-03-12T10:51:29.613Z,100679.69
2019-03-12T10:52:33.096Z,100682.95
2019-03-12T10:53:36.589Z,100672.52
2019-03-12T10:54:40.147Z,100666.70
2019-03-12T10:55:43.738Z,100668.55
2019-03-12T10:56:47.305Z,100666.31
2019-03-12T10:57:50.821Z,100659.44
2019-03-12T10:58:54.306Z,100665.42
2019-03-12T10:59:57.933Z,100654.91
2019-03-12T11:01:01.441Z,100642.20
2019-03-12T11:02:05.066Z,100640.50
2019-03-12T11:03:08.630Z,100647.37
2019-03-12T11:04:13.330Z,100633.05
2019-03-12T11:05:17.973Z,100636.88
2019-03-12T11:06:21.625Z,100637.75
2019-03-12T11:07:25.317Z,100633.62
2019-03-12T11:08:28.945Z,100625.61
2019-03-12T11:09:32.506Z,100618.73
2019-03-12T11:10:36.051Z,100619.86
2019-03-12T11:11:39.681Z,100606.76
2019-03-12T11:12:43.206Z,100614.77
2019-03-12T11:13:46.730Z,100611.30
2019-03-12T11:14:50.272Z,100601.91
2019-03-12T11:15:53.831Z,100605.55
2019-03-12T11:16:57.422Z,100612.43
2019-03-12T11:18:00.921Z,100612.16
2019-03-12T11:19:04.546Z,100610.54
2019-03-12T11:20:19.345Z,100605.28
2019-03-12T11:21:22.833Z,100605.28
2019-03-12T11:22:26.409Z,100611.35
2019-03-12T11:23:30.038Z,100598.16
2019-03-12T11:24:33.524Z,100609.35
2019-03-12T11:25:37.088Z,100597.54
2019-03-12T11:26:40.642Z,100593.98
2019-03-12T11:27:44.289Z,100593.70
2019-03-12T11:28:47.779Z,100591.52
2019-03-12T11:29:51.274Z,100589.58
2019-03-12T11:30:54.895Z,100583.84
2019-03-12T11:31:58.564Z,100578.58
2019-03-12T11:33:02.189Z,100577.15
2019-03-12T11:34:05.773Z,100577.39
2019-03-12T11:35:10.119Z,100574.64
2019-03-12T11:36:13.621Z,100565.81
2019-03-12T11:37:17.191Z,100560.88
2019-03-12T11:38:20.784Z,100557.56
2019-03-12T11:39:24.343Z,100554.24
2019-03-12T11:40:32.002Z,100558.13
2019-03-12T11:41:33.516Z,100548.83
2019-03-12T11:42:37.158Z,100548.50
2019-03-12T11:43:40.853Z,100538.39
2019-03-12T11:44:44.379Z,100537.02
2019-03-12T11:45:47.889Z,100542.52
2019-03-12T11:46:51.592Z,100537.83
2019-03-12T11:47:55.150Z,100525.77
2019-03-12T11:48:58.805Z,100525.20
2019-03-12T11:50:02.324Z,100524.40
2019-03-12T11:51:06.262Z,100520.27
2019-03-12T11:52:10.233Z,100516.62
2019-03-12T11:53:13.991Z,100505.86
2019-03-12T11:54:17.567Z,100491.30
2019-03-12T11:55:21.339Z,100510.47
2019-03-12T11:56:25.123Z,100507.47
2019-03-12T11:57:28.620Z,100506.66
2019-03-12T11:58:32.361Z,100501.16
2019-03-12T11:59:35.959Z,100488.78
2019-03-12T12:00:44.218Z,100489.92
2019-03-12T12:01:47.682Z,100485.31
2019-03-12T12:02:59.745Z,100486.12
2019-03-12T12:03:56.743Z,100486.98
2019-03-12T12:05:00.366Z,100492.25
2019-03-12T12:06:04.262Z,100481.58
2019-03-12T12:07:08.121Z,100482.44
2019-03-12T12:08:11.769Z,100476.70
2019-03-12T12:09:15.358Z,100483.91
2019-03-12T12:10:19.517Z,100476.79
2019-03-12T12:11:23.012Z,100478.25
2019-03-12T12:12:26.590Z,100475.50
2019-03-12T12:13:30.223Z,100474.94
2019-03-12T12:14:33.827Z,100471.62
2019-03-12T12:15:37.564Z,100464.74
2019-03-12T12:16:41.035Z,100460.29
2019-03-12T12:17:44.705Z,100456.40
2019-03-12T12:18:48.261Z,100457.53
2019-03-12T12:19:51.761Z,100452.03
2019-03-12T12:20:55.344Z,100452.93
2019-03-12T12:21:58.827Z,100450.19
2019-03-12T12:23:02.392Z,100452.45
2019-03-12T12:24:05.994Z,100441.78
2019-03-12T12:25:12.614Z,100446.23
2019-03-12T12:26:16.128Z,100436.94
2019-03-12T12:27:19.752Z,100425.52
2019-03-12T12:28:23.261Z,100421.39
2019-03-12T12:29:26.900Z,100418.65
2019-03-12T12:30:30.720Z,100428.36
2019-03-12T12:31:34.245Z,100424.56
2019-03-12T12:32:37.801Z,100419.55
2019-03-12T12:33:41.398Z,100417.13
2019-03-12T12:34:44.929Z,100405.55
2019-03-12T12:35:48.500Z,100399.01
2019-03-12T12:36:52.197Z,100396.83
2019-03-12T12:37:55.767Z,100390.19
2019-03-12T12:38:59.261Z,100385.27
2019-03-12T12:40:02.761Z,100387.68